sensor_id;sensor_type;location;lat;lon;timestamp;pressure;altitude;pressure_sealevel;temperature;humidity
14253;BME280;7210;51.502;10.722;2024-02-14T00:01:05;99854.44;;;2.96;100.00
14253;BME280;7210;51.502;10.722;2024-02-14T00:03:34;99857.38;;;2.93;100.00
14253;BME280;7210;51.502;10.722;2024-02-14T00:06:04;99858.53;;;2.90;100.00
14253;BME280;7210;51.502;10.722;2024-02-14T00:08:31;99845.88;;;2.79;100.00
14253;BME280;7210;51.502;10.722;2024-02-14T00:11:00;99853.03;;;2.85;100.00
14253;BME280;7210;51.502;10.722;2024-02-14T00:13:28;99852.22;;;2.85;100.00
14253;BME280;7210;51.502;10.722;2024-02-14T00:15:55;99852.41;;;2.83;100.00
14253;BME280;7210;51.502;10.722;2024-02-14T00:18:23;99846.00;;;2.86;100.00
14253;BME280;7210;51.502;10.722;2024-02-14T00:20:50;99841.28;;;2.81;100.00
14253;BME280;7210;51.502;10.722;2024-02-14T00:23:17;99835.78;;;2.76;100.00
14253;BME280;7210;51.502;10.722;2024-02-14T00:25:44;99820.03;;;2.62;100.00
14253;BME280;7210;51.502;10.722;2024-02-14T00:28:12;99833.22;;;2.68;100.00
14253;BME280;7210;51.502;10.722;2024-02-14T00:30:39;99835.47;;;2.71;100.00
14253;BME280;7210;51.502;10.722;2024-02-14T00:33:07;99834.19;;;2.67;100.00
14253;BME280;7210;51.502;10.722;2024-02-14T00:35:34;99826.72;;;2.64;100.00
14253;BME280;7210;51.502;10.722;2024-02-14T00:38:01;99825.09;;;2.63;100.00
14253;BME280;7210;51.502;10.722;2024-02-14T00:40:28;99819.03;;;2.63;100.00
14253;BME280;7210;51.502;10.722;2024-02-14T00:42:55;99800.69;;;2.48;100.00
14253;BME280;7210;51.502;10.722;2024-02-14T00:45:27;99839.75;;;2.64;100.00
14253;BME280;7210;51.502;10.722;2024-02-14T00:47:55;99839.41;;;2.67;100.00
14253;BME280;7210;51.502;10.722;2024-02-14T00:50:22;99844.47;;;2.69;100.00
14253;BME280;7210;51.502;10.722;2024-02-14T00:52:49;99841.06;;;2.68;100.00
14253;BME280;7210;51.502;10.722;2024-02-14T00:55:20;99838.44;;;2.68;100.00
14253;BME280;7210;51.502;10.722;2024-02-14T00:57:47;99837.47;;;2.69;100.00
14253;BME280;7210;51.502;10.722;2024-02-14T01:00:20;99841.69;;;2.70;100.00
14253;BME280;7210;51.502;10.722;2024-02-14T01:02:48;99838.44;;;2.68;100.00
14253;BME280;7210;51.502;10.722;2024-02-14T01:05:15;99836.81;;;2.59;100.00
14253;BME280;7210;51.502;10.722;2024-02-14T01:07:43;99832.94;;;2.55;100.00
14253;BME280;7210;51.502;10.722;2024-02-14T01:10:12;99829.03;;;2.51;100.00
14253;BME280;7210;51.502;10.722;2024-02-14T01:12:39;99831.16;;;2.48;100.00
14253;BME280;7210;51.502;10.722;2024-02-14T01:15:07;99832.00;;;2.48;100.00
14253;BME280;7210;51.502;10.722;2024-02-14T01:17:34;99824.34;;;2.47;100.00
14253;BME280;7210;51.502;10.722;2024-02-14T01:20:07;99833.63;;;2.49;100.00
14253;BME280;7210;51.502;10.722;2024-02-14T01:22:35;99819.59;;;2.50;100.00
14253;BME280;7210;51.502;10.722;2024-02-14T01:25:03;99823.66;;;2.53;100.00
14253;BME280;7210;51.502;10.722;2024-02-14T01:27:31;99818.56;;;2.59;100.00
14253;BME280;7210;51.502;10.722;2024-02-14T01:29:58;99831.25;;;2.70;100.00
14253;BME280;7210;51.502;10.722;2024-02-14T01:32:25;99830.22;;;2.79;100.00
14253;BME280;7210;51.502;10.722;2024-02-14T01:34:56;99822.09;;;2.74;100.00
14253;BME280;7210;51.502;10.722;2024-02-14T01:37:24;99800.72;;;2.71;100.00
14253;BME280;7210;51.502;10.722;2024-02-14T01:39:51;99802.72;;;2.69;100.00
14253;BME280;7210;51.502;10.722;2024-02-14T01:42:18;99801.75;;;2.62;100.00
14253;BME280;7210;51.502;10.722;2024-02-14T01:44:46;99792.16;;;2.62;100.00
14253;BME280;7210;51.502;10.722;2024-02-14T01:47:13;99798.16;;;2.63;100.00
14253;BME280;7210;51.502;10.722;2024-02-14T01:49:41;99798.63;;;2.66;100.00
14253;BME280;7210;51.502;10.722;2024-02-14T01:52:10;99795.75;;;2.61;100.00
14253;BME280;7210;51.502;10.722;2024-02-14T01:54:39;99788.25;;;2.58;100.00
14253;BME280;7210;51.502;10.722;2024-02-14T01:57:08;99778.19;;;2.47;100.00
14253;BME280;7210;51.502;10.722;2024-02-14T01:59:36;99789.88;;;2.59;100.00
14253;BME280;7210;51.502;10.722;2024-02-14T02:02:04;99785.78;;;2.65;100.00
14253;BME280;7210;51.502;10.722;2024-02-14T02:04:33;99784.13;;;2.72;100.00
14253;BME280;7210;51.502;10.722;2024-02-14T02:07:00;99780.63;;;2.79;100.00
14253;BME280;7210;51.502;10.722;2024-02-14T02:09:27;99788.72;;;2.92;100.00
14253;BME280;7210;51.502;10.722;2024-02-14T02:11:58;99783.72;;;3.05;100.00
14253;BME280;7210;51.502;10.722;2024-02-14T02:14:26;99777.78;;;3.11;100.00
14253;BME280;7210;51.502;10.722;2024-02-14T02:16:53;99768.97;;;3.12;100.00
14253;BME280;7210;51.502;10.722;2024-02-14T02:19:20;99770.19;;;3.24;100.00
14253;BME280;7210;51.502;10.722;2024-02-14T02:21:48;99749.94;;;3.26;100.00
14253;BME280;7210;51.502;10.722;2024-02-14T02:24:16;99749.94;;;3.26;100.00
14253;BME280;7210;51.502;10.722;2024-02-14T02:26:43;99753.81;;;3.30;100.00
14253;BME280;7210;51.502;10.722;2024-02-14T02:29:10;99752.13;;;3.37;100.00
14253;BME280;7210;51.502;10.722;2024-02-14T02:31:38;99744.91;;;3.39;100.00
14253;BME280;7210;51.502;10.722;2024-02-14T02:34:05;99749.00;;;3.42;100.00
14253;BME280;7210;51.502;10.722;2024-02-14T02:36:33;99736.19;;;3.47;100.00
14253;BME280;7210;51.502;10.722;2024-02-14T02:39:01;99713.28;;;3.34;100.00
14253;BME280;7210;51.502;10.722;2024-02-14T02:41:30;99736.63;;;3.50;100.00
14253;BME280;7210;51.502;10.722;2024-02-14T02:44:02;99737.25;;;3.52;100.00
14253;BME280;7210;51.502;10.722;2024-02-14T02:46:32;99732.88;;;3.53;100.00
14253;BME280;7210;51.502;10.722;2024-02-14T02:48:59;99734.94;;;3.57;100.00
14253;BME280;7210;51.502;10.722;2024-02-14T02:51:27;99737.19;;;3.60;100.00
14253;BME280;7210;51.502;10.722;2024-02-14T02:53:55;99731.00;;;3.61;100.00
14253;BME280;7210;51.502;10.722;2024-02-14T02:56:23;99733.25;;;3.64;100.00
14253;BME280;7210;51.502;10.722;2024-02-14T02:58:54;99738.91;;;3.67;100.00
14253;BME280;7210;51.502;10.722;2024-02-14T03:01:21;99740.63;;;3.75;100.00
14253;BME280;7210;51.502;10.722;2024-02-14T03:03:49;99739.91;;;3.81;100.00
14253;BME280;7210;51.502;10.722;2024-02-14T03:06:16;99731.19;;;3.88;100.00
14253;BME280;7210;51.502;10.722;2024-02-14T03:08:44;99725.13;;;3.88;100.00
14253;BME280;7210;51.502;10.722;2024-02-14T03:11:11;99725.75;;;3.90;100.00
14253;BME280;7210;51.502;10.722;2024-02-14T03:13:38;99722.41;;;3.96;100.00
14253;BME280;7210;51.502;10.722;2024-02-14T03:16:08;99729.00;;;4.06;100.00
14253;BME280;7210;51.502;10.722;2024-02-14T03:18:36;99724.38;;;4.08;100.00
14253;BME280;7210;51.502;10.722;2024-02-14T03:21:04;99718.00;;;4.11;100.00
14253;BME280;7210;51.502;10.722;2024-02-14T03:23:32;99716.81;;;4.13;100.00
14253;BME280;7210;51.502;10.722;2024-02-14T03:25:59;99729.34;;;4.18;100.00
14253;BME280;7210;51.502;10.722;2024-02-14T03:28:26;99727.34;;;4.20;100.00
14253;BME280;7210;51.502;10.722;2024-02-14T03:30:56;99724.00;;;4.26;100.00
14253;BME280;7210;51.502;10.722;2024-02-14T03:33:25;99717.78;;;4.27;100.00
14253;BME280;7210;51.502;10.722;2024-02-14T03:35:52;99704.69;;;4.27;100.00
14253;BME280;7210;51.502;10.722;2024-02-14T03:38:25;99699.75;;;4.32;100.00
14253;BME280;7210;51.502;10.722;2024-02-14T03:40:53;99705.97;;;4.31;100.00
14253;BME280;7210;51.502;10.722;2024-02-14T03:43:20;99690.28;;;4.31;100.00
14253;BME280;7210;51.502;10.722;2024-02-14T03:45:49;99684.03;;;4.32;100.00
14253;BME280;7210;51.502;10.722;2024-02-14T03:48:20;99683.84;;;4.33;100.00
14253;BME280;7210;51.502;10.722;2024-02-14T03:50:49;99684.28;;;4.37;100.00
14253;BME280;7210;51.502;10.722;2024-02-14T03:53:20;99679.31;;;4.42;100.00
14253;BME280;7210;51.502;10.722;2024-02-14T03:55:47;99678.75;;;4.46;100.00
14253;BME280;7210;51.502;10.722;2024-02-14T03:58:15;99681.19;;;4.48;100.00
14253;BME280;7210;51.502;10.722;2024-02-14T04:00:46;99681.19;;;4.48;100.00
14253;BME280;7210;51.502;10.722;2024-02-14T04:03:14;99672.34;;;4.49;100.00
14253;BME280;7210;51.502;10.722;2024-02-14T04:05:41;99669.09;;;4.47;100.00
14253;BME280;7210;51.502;10.722;2024-02-14T04:08:10;99665.50;;;4.48;100.00
14253;BME280;7210;51.502;10.722;2024-02-14T04:10:38;99669.16;;;4.53;100.00
14253;BME280;7210;51.502;10.722;2024-02-14T04:13:05;99667.00;;;4.57;100.00
14253;BME280;7210;51.502;10.722;2024-02-14T04:15:33;99660.75;;;4.58;100.00
14253;BME280;7210;51.502;10.722;2024-02-14T04:18:00;99667.59;;;4.59;100.00
14253;BME280;7210;51.502;10.722;2024-02-14T04:20:28;99668.22;;;4.61;100.00
14253;BME280;7210;51.502;10.722;2024-02-14T04:22:56;99663.63;;;4.63;100.00
14253;BME280;7210;51.502;10.722;2024-02-14T04:25:25;99661.25;;;4.68;100.00
14253;BME280;7210;51.502;10.722;2024-02-14T04:27:53;99671.72;;;4.68;100.00
14253;BME280;7210;51.502;10.722;2024-02-14T04:30:20;99665.72;;;4.74;100.00
14253;BME280;7210;51.502;10.722;2024-02-14T04:32:47;99675.59;;;4.72;100.00
14253;BME280;7210;51.502;10.722;2024-02-14T04:35:15;99677.03;;;4.74;100.00
14253;BME280;7210;51.502;10.722;2024-02-14T04:37:42;99678.69;;;4.82;100.00
14253;BME280;7210;51.502;10.722;2024-02-14T04:40:13;99677.09;;;4.81;100.00
14253;BME280;7210;51.502;10.722;2024-02-14T04:42:46;99663.72;;;4.76;100.00
14253;BME280;7210;51.502;10.722;2024-02-14T04:45:14;99665.59;;;4.82;100.00
14253;BME280;7210;51.502;10.722;2024-02-14T04:47:41;99652.91;;;4.79;100.00
14253;BME280;7210;51.502;10.722;2024-02-14T04:50:10;99654.91;;;4.77;100.00
14253;BME280;7210;51.502;10.722;2024-02-14T04:52:37;99660.13;;;4.77;100.00
14253;BME280;7210;51.502;10.722;2024-02-14T04:55:06;99661.84;;;4.91;100.00
14253;BME280;7210;51.502;10.722;2024-02-14T04:57:33;99665.88;;;4.87;100.00
14253;BME280;7210;51.502;10.722;2024-02-14T05:00:05;99654.13;;;4.83;100.00
14253;BME280;7210;51.502;10.722;2024-02-14T05:02:35;99668.69;;;4.92;100.00
14253;BME280;7210;51.502;10.722;2024-02-14T05:05:08;99664.72;;;4.96;100.00
14253;BME280;7210;51.502;10.722;2024-02-14T05:07:36;99658.22;;;4.92;100.00
14253;BME280;7210;51.502;10.722;2024-02-14T05:10:04;99647.75;;;4.92;100.00
14253;BME280;7210;51.502;10.722;2024-02-14T05:12:40;99637.66;;;4.89;100.00
14253;BME280;7210;51.502;10.722;2024-02-14T05:15:09;99643.09;;;4.87;100.00
14253;BME280;7210;51.502;10.722;2024-02-14T05:17:38;99646.53;;;4.88;100.00
14253;BME280;7210;51.502;10.722;2024-02-14T05:20:06;99647.53;;;4.87;100.00
14253;BME280;7210;51.502;10.722;2024-02-14T05:22:36;99652.59;;;4.88;100.00
14253;BME280;7210;51.502;10.722;2024-02-14T05:25:04;99655.44;;;4.93;100.00
14253;BME280;7210;51.502;10.722;2024-02-14T05:27:33;99652.88;;;5.00;100.00
14253;BME280;7210;51.502;10.722;2024-02-14T05:30:00;99644.59;;;4.96;100.00
14253;BME280;7210;51.502;10.722;2024-02-14T05:32:32;99646.66;;;5.01;100.00
14253;BME280;7210;51.502;10.722;2024-02-14T05:35:00;99643.78;;;4.96;100.00
14253;BME280;7210;51.502;10.722;2024-02-14T05:37:30;99635.66;;;4.91;100.00
14253;BME280;7210;51.502;10.722;2024-02-14T05:40:03;99645.84;;;5.07;100.00
14253;BME280;7210;51.502;10.722;2024-02-14T05:42:32;99650.50;;;5.05;100.00
14253;BME280;7210;51.502;10.722;2024-02-14T05:45:00;99659.59;;;5.09;100.00
14253;BME280;7210;51.502;10.722;2024-02-14T05:47:27;99643.38;;;4.99;100.00
14253;BME280;7210;51.502;10.722;2024-02-14T05:49:56;99656.72;;;5.04;100.00
14253;BME280;7210;51.502;10.722;2024-02-14T05:52:23;99651.31;;;5.05;100.00
14253;BME280;7210;51.502;10.722;2024-02-14T05:54:50;99661.97;;;5.04;100.00
14253;BME280;7210;51.502;10.722;2024-02-14T05:57:17;99661.56;;;5.07;100.00
14253;BME280;7210;51.502;10.722;2024-02-14T05:59:44;99663.59;;;5.05;100.00
14253;BME280;7210;51.502;10.722;2024-02-14T06:02:11;99673.72;;;5.08;100.00
14253;BME280;7210;51.502;10.722;2024-02-14T06:04:38;99670.50;;;5.12;100.00
14253;BME280;7210;51.502;10.722;2024-02-14T06:07:06;99680.59;;;5.15;100.00
14253;BME280;7210;51.502;10.722;2024-02-14T06:09:35;99680.00;;;5.13;100.00
14253;BME280;7210;51.502;10.722;2024-02-14T06:12:08;99685.03;;;5.15;100.00
14253;BME280;7210;51.502;10.722;2024-02-14T06:14:36;99687.09;;;5.19;100.00
14253;BME280;7210;51.502;10.722;2024-02-14T06:17:04;99696.00;;;5.25;100.00
14253;BME280;7210;51.502;10.722;2024-02-14T06:19:31;99696.00;;;5.25;100.00
14253;BME280;7210;51.502;10.722;2024-02-14T06:21:59;99688.50;;;5.22;100.00
14253;BME280;7210;51.502;10.722;2024-02-14T06:24:27;99681.84;;;5.19;100.00
14253;BME280;7210;51.502;10.722;2024-02-14T06:26:54;99672.59;;;5.23;100.00
14253;BME280;7210;51.502;10.722;2024-02-14T06:29:21;99673.66;;;5.29;100.00
14253;BME280;7210;51.502;10.722;2024-02-14T06:31:49;99683.50;;;5.27;100.00
14253;BME280;7210;51.502;10.722;2024-02-14T06:34:20;99697.63;;;5.26;100.00
14253;BME280;7210;51.502;10.722;2024-02-14T06:36:47;99697.63;;;5.26;100.00
14253;BME280;7210;51.502;10.722;2024-02-14T06:39:14;99675.53;;;5.14;100.00
14253;BME280;7210;51.502;10.722;2024-02-14T06:41:43;99686.31;;;5.25;100.00
14253;BME280;7210;51.502;10.722;2024-02-14T06:44:11;99681.91;;;5.26;100.00
14253;BME280;7210;51.502;10.722;2024-02-14T06:46:38;99683.91;;;5.24;100.00
14253;BME280;7210;51.502;10.722;2024-02-14T06:49:07;99685.13;;;5.28;100.00
14253;BME280;7210;51.502;10.722;2024-02-14T06:51:34;99689.22;;;5.37;100.00
14253;BME280;7210;51.502;10.722;2024-02-14T06:54:02;99692.50;;;5.39;100.00
14253;BME280;7210;51.502;10.722;2024-02-14T06:56:30;99683.97;;;5.37;100.00
14253;BME280;7210;51.502;10.722;2024-02-14T06:58:58;99687.25;;;5.39;100.00
14253;BME280;7210;51.502;10.722;2024-02-14T07:01:26;99692.50;;;5.39;100.00
14253;BME280;7210;51.502;10.722;2024-02-14T07:03:53;99695.72;;;5.41;100.00
14253;BME280;7210;51.502;10.722;2024-02-14T07:06:20;99692.09;;;5.42;100.00
14253;BME280;7210;51.502;10.722;2024-02-14T07:08:48;99695.50;;;5.42;100.00
14253;BME280;7210;51.502;10.722;2024-02-14T07:11:16;99690.25;;;5.42;100.00
14253;BME280;7210;51.502;10.722;2024-02-14T07:13:43;99694.09;;;5.40;100.00
14253;BME280;7210;51.502;10.722;2024-02-14T07:16:12;99699.56;;;5.45;100.00
14253;BME280;7210;51.502;10.722;2024-02-14T07:18:40;99703.28;;;5.57;100.00
14253;BME280;7210;51.502;10.722;2024-02-14T07:21:07;99699.06;;;5.56;100.00
14253;BME280;7210;51.502;10.722;2024-02-14T07:23:34;99701.09;;;5.60;100.00
14253;BME280;7210;51.502;10.722;2024-02-14T07:26:01;99701.53;;;5.64;100.00
14253;BME280;7210;51.502;10.722;2024-02-14T07:28:28;99714.09;;;5.75;100.00
14253;BME280;7210;51.502;10.722;2024-02-14T07:30:55;99713.84;;;5.97;100.00
14253;BME280;7210;51.502;10.722;2024-02-14T07:33:24;99725.22;;;6.11;100.00
14253;BME280;7210;51.502;10.722;2024-02-14T07:35:51;99725.69;;;6.27;100.00
14253;BME280;7210;51.502;10.722;2024-02-14T07:38:18;99735.47;;;6.53;100.00
14253;BME280;7210;51.502;10.722;2024-02-14T07:40:50;99733.91;;;6.65;100.00
14253;BME280;7210;51.502;10.722;2024-02-14T07:43:18;99716.72;;;6.69;100.00
14253;BME280;7210;51.502;10.722;2024-02-14T07:45:45;99711.72;;;6.80;100.00
14253;BME280;7210;51.502;10.722;2024-02-14T07:48:12;99723.88;;;6.94;100.00
14253;BME280;7210;51.502;10.722;2024-02-14T07:50:40;99702.84;;;7.01;100.00
14253;BME280;7210;51.502;10.722;2024-02-14T07:53:08;99708.50;;;7.23;100.00
14253;BME280;7210;51.502;10.722;2024-02-14T07:55:35;99711.34;;;7.35;100.00
14253;BME280;7210;51.502;10.722;2024-02-14T07:58:03;99703.47;;;7.41;100.00
14253;BME280;7210;51.502;10.722;2024-02-14T08:00:30;99698.78;;;7.50;100.00
14253;BME280;7210;51.502;10.722;2024-02-14T08:02:57;99692.09;;;7.47;100.00
14253;BME280;7210;51.502;10.722;2024-02-14T08:05:25;99696.75;;;7.58;100.00
14253;BME280;7210;51.502;10.722;2024-02-14T08:07:54;99693.31;;;7.64;100.00
14253;BME280;7210;51.502;10.722;2024-02-14T08:10:21;99694.88;;;7.78;100.00
14253;BME280;7210;51.502;10.722;2024-02-14T08:12:49;99690.25;;;7.80;100.00
14253;BME280;7210;51.502;10.722;2024-02-14T08:15:20;99691.44;;;7.84;100.00
14253;BME280;7210;51.502;10.722;2024-02-14T08:17:48;99685.56;;;7.89;100.00
14253;BME280;7210;51.502;10.722;2024-02-14T08:20:15;99703.53;;;8.05;100.00
14253;BME280;7210;51.502;10.722;2024-02-14T08:22:43;99709.56;;;8.18;100.00
14253;BME280;7210;51.502;10.722;2024-02-14T08:25:12;99707.09;;;8.36;100.00
14253;BME280;7210;51.502;10.722;2024-02-14T08:27:39;99715.59;;;8.38;100.00
14253;BME280;7210;51.502;10.722;2024-02-14T08:30:07;99715.97;;;8.48;100.00
14253;BME280;7210;51.502;10.722;2024-02-14T08:32:35;99705.81;;;8.45;100.00
14253;BME280;7210;51.502;10.722;2024-02-14T08:35:03;99727.69;;;8.52;100.00
14253;BME280;7210;51.502;10.722;2024-02-14T08:37:30;99718.75;;;8.53;100.00
14253;BME280;7210;51.502;10.722;2024-02-14T08:39:57;99720.59;;;8.53;100.00
14253;BME280;7210;51.502;10.722;2024-02-14T08:42:26;99721.22;;;8.48;100.00
14253;BME280;7210;51.502;10.722;2024-02-14T08:44:53;99737.78;;;8.55;100.00
14253;BME280;7210;51.502;10.722;2024-02-14T08:47:20;99735.00;;;8.50;100.00
14253;BME280;7210;51.502;10.722;2024-02-14T08:49:47;99745.09;;;8.53;100.00
14253;BME280;7210;51.502;10.722;2024-02-14T08:52:14;99740.66;;;8.54;100.00
14253;BME280;7210;51.502;10.722;2024-02-14T08:54:42;99749.75;;;8.64;100.00
14253;BME280;7210;51.502;10.722;2024-02-14T08:57:10;99752.19;;;8.59;100.00
14253;BME280;7210;51.502;10.722;2024-02-14T08:59:38;99753.19;;;8.58;100.00
14253;BME280;7210;51.502;10.722;2024-02-14T09:02:07;99757.03;;;8.62;100.00
14253;BME280;7210;51.502;10.722;2024-02-14T09:04:34;99764.34;;;8.60;100.00
14253;BME280;7210;51.502;10.722;2024-02-14T09:07:03;99777.06;;;8.70;100.00
14253;BME280;7210;51.502;10.722;2024-02-14T09:09:32;99776.69;;;8.66;100.00
14253;BME280;7210;51.502;10.722;2024-02-14T09:11:59;99785.38;;;8.67;100.00
14253;BME280;7210;51.502;10.722;2024-02-14T09:14:28;99783.13;;;8.70;100.00
14253;BME280;7210;51.502;10.722;2024-02-14T09:16:57;99780.72;;;8.69;100.00
14253;BME280;7210;51.502;10.722;2024-02-14T09:19:24;99794.47;;;8.77;100.00
14253;BME280;7210;51.502;10.722;2024-02-14T09:21:53;99790.81;;;8.78;100.00
14253;BME280;7210;51.502;10.722;2024-02-14T09:24:20;99800.94;;;8.81;100.00
14253;BME280;7210;51.502;10.722;2024-02-14T09:26:47;99798.06;;;8.89;100.00
14253;BME280;7210;51.502;10.722;2024-02-14T09:29:14;99802.91;;;8.92;100.00
14253;BME280;7210;51.502;10.722;2024-02-14T09:31:41;99800.03;;;9.00;100.00
14253;BME280;7210;51.502;10.722;2024-02-14T09:34:14;99810.94;;;9.04;100.00
14253;BME280;7210;51.502;10.722;2024-02-14T09:36:44;99814.41;;;9.04;100.00
14253;BME280;7210;51.502;10.722;2024-02-14T09:39:11;99806.53;;;8.98;100.00
14253;BME280;7210;51.502;10.722;2024-02-14T09:41:46;99812.44;;;8.93;100.00
14253;BME280;7210;51.502;10.722;2024-02-14T09:44:18;99817.69;;;8.93;100.00
14253;BME280;7210;51.502;10.722;2024-02-14T09:46:46;99832.50;;;8.94;100.00
14253;BME280;7210;51.502;10.722;2024-02-14T09:49:17;99845.44;;;9.02;100.00
14253;BME280;7210;51.502;10.722;2024-02-14T09:51:48;99843.44;;;9.04;100.00
14253;BME280;7210;51.502;10.722;2024-02-14T09:54:17;99847.47;;;9.07;100.00
14253;BME280;7210;51.502;10.722;2024-02-14T09:56:48;99837.75;;;9.01;100.00
14253;BME280;7210;51.502;10.722;2024-02-14T09:59:19;99851.50;;;9.09;100.00
14253;BME280;7210;51.502;10.722;2024-02-14T10:01:47;99848.47;;;9.12;100.00
14253;BME280;7210;51.502;10.722;2024-02-14T10:04:18;99870.91;;;9.21;100.00
14253;BME280;7210;51.502;10.722;2024-02-14T10:06:46;99873.31;;;9.29;100.00
14253;BME280;7210;51.502;10.722;2024-02-14T10:09:20;99871.50;;;9.30;100.00
14253;BME280;7210;51.502;10.722;2024-02-14T10:11:48;99882.41;;;9.33;100.00
14253;BME280;7210;51.502;10.722;2024-02-14T10:14:15;99876.09;;;9.41;100.00
14253;BME280;7210;51.502;10.722;2024-02-14T10:16:45;99878.94;;;9.39;100.00
14253;BME280;7210;51.502;10.722;2024-02-14T10:19:18;99884.97;;;9.46;100.00
14253;BME280;7210;51.502;10.722;2024-02-14T10:21:55;99888.97;;;9.55;100.00
14253;BME280;7210;51.502;10.722;2024-02-14T10:24:25;99897.28;;;9.65;100.00
14253;BME280;7210;51.502;10.722;2024-02-14T10:26:58;99883.72;;;9.55;100.00
14253;BME280;7210;51.502;10.722;2024-02-14T10:29:26;99882.84;;;9.61;100.00
14253;BME280;7210;51.502;10.722;2024-02-14T10:31:54;99890.97;;;9.66;100.00
14253;BME280;7210;51.502;10.722;2024-02-14T10:34:25;99890.53;;;9.69;100.00
14253;BME280;7210;51.502;10.722;2024-02-14T10:36:56;99876.81;;;9.54;99.83
14253;BME280;7210;51.502;10.722;2024-02-14T10:39:26;99904.16;;;9.66;99.86
14253;BME280;7210;51.502;10.722;2024-02-14T10:41:53;99902.94;;;9.62;99.63
14253;BME280;7210;51.502;10.722;2024-02-14T10:44:20;99908.41;;;9.67;99.67
14253;BME280;7210;51.502;10.722;2024-02-14T10:46:52;99904.16;;;9.66;99.64
14253;BME280;7210;51.502;10.722;2024-02-14T10:49:24;99915.22;;;9.81;99.55
14253;BME280;7210;51.502;10.722;2024-02-14T10:51:54;99909.50;;;9.84;99.34
14253;BME280;7210;51.502;10.722;2024-02-14T10:54:24;99911.44;;;9.95;99.16
14253;BME280;7210;51.502;10.722;2024-02-14T10:56:58;99920.72;;;10.11;98.84
14253;BME280;7210;51.502;10.722;2024-02-14T10:59:26;99900.81;;;10.08;98.68
14253;BME280;7210;51.502;10.722;2024-02-14T11:01:54;99902.03;;;10.12;98.59
14253;BME280;7210;51.502;10.722;2024-02-14T11:04:24;99906.88;;;10.15;98.16
14253;BME280;7210;51.502;10.722;2024-02-14T11:06:58;99904.78;;;10.24;98.26
14253;BME280;7210;51.502;10.722;2024-02-14T11:09:31;99903.84;;;10.36;98.13
14253;BME280;7210;51.502;10.722;2024-02-14T11:12:04;99921.63;;;10.47;98.09
14253;BME280;7210;51.502;10.722;2024-02-14T11:14:42;99908.13;;;10.55;97.75
14253;BME280;7210;51.502;10.722;2024-02-14T11:17:13;99894.97;;;10.49;97.40
14253;BME280;7210;51.502;10.722;2024-02-14T11:19:41;99911.28;;;10.64;97.37
14253;BME280;7210;51.502;10.722;2024-02-14T11:22:12;99924.28;;;10.65;97.19
14253;BME280;7210;51.502;10.722;2024-02-14T11:24:39;99940.03;;;10.78;96.87
14253;BME280;7210;51.502;10.722;2024-02-14T11:27:17;99918.50;;;10.75;96.41
14253;BME280;7210;51.502;10.722;2024-02-14T11:29:56;99969.50;;;11.35;96.29
14253;BME280;7210;51.502;10.722;2024-02-14T11:32:27;99968.03;;;11.57;96.05
14253;BME280;7210;51.502;10.722;2024-02-14T11:34:56;99938.25;;;11.44;95.11
14253;BME280;7210;51.502;10.722;2024-02-14T11:37:28;99927.81;;;11.31;94.93
14253;BME280;7210;51.502;10.722;2024-02-14T11:39:57;99903.50;;;11.05;94.78
14253;BME280;7210;51.502;10.722;2024-02-14T11:42:24;99904.59;;;10.79;94.67
14253;BME280;7210;51.502;10.722;2024-02-14T11:44:51;99917.63;;;10.63;94.97
14253;BME280;7210;51.502;10.722;2024-02-14T11:47:20;99902.97;;;10.42;95.13
14253;BME280;7210;51.502;10.722;2024-02-14T11:49:47;99917.72;;;10.32;95.34
14253;BME280;7210;51.502;10.722;2024-02-14T11:52:15;99953.03;;;10.37;95.86
14253;BME280;7210;51.502;10.722;2024-02-14T11:54:46;99964.78;;;10.41;95.96
14253;BME280;7210;51.502;10.722;2024-02-14T11:57:17;99981.44;;;10.42;96.38
14253;BME280;7210;51.502;10.722;2024-02-14T11:59:45;99987.78;;;10.34;96.61
14253;BME280;7210;51.502;10.722;2024-02-14T12:02:14;100000.03;;;10.35;96.75
14253;BME280;7210;51.502;10.722;2024-02-14T12:04:50;100011.38;;;10.36;96.94
14253;BME280;7210;51.502;10.722;2024-02-14T12:07:21;100013.63;;;10.32;97.36
14253;BME280;7210;51.502;10.722;2024-02-14T12:09:49;100023.34;;;10.38;97.70
14253;BME280;7210;51.502;10.722;2024-02-14T12:12:16;100024.56;;;10.42;97.66
14253;BME280;7210;51.502;10.722;2024-02-14T12:14:43;100023.16;;;10.40;97.67
14253;BME280;7210;51.502;10.722;2024-02-14T12:17:16;100028.59;;;10.45;97.68
14253;BME280;7210;51.502;10.722;2024-02-14T12:19:44;100022.91;;;10.41;97.69
14253;BME280;7210;51.502;10.722;2024-02-14T12:22:12;100018.06;;;10.38;97.34
14253;BME280;7210;51.502;10.722;2024-02-14T12:24:45;100003.91;;;10.26;97.80
14253;BME280;7210;51.502;10.722;2024-02-14T12:27:13;100013.31;;;10.22;98.14
14253;BME280;7210;51.502;10.722;2024-02-14T12:29:46;100017.41;;;10.18;98.25
14253;BME280;7210;51.502;10.722;2024-02-14T12:32:17;100013.38;;;10.16;98.83
14253;BME280;7210;51.502;10.722;2024-02-14T12:34:44;100023.88;;;10.22;98.75
14253;BME280;7210;51.502;10.722;2024-02-14T12:37:11;100015.38;;;10.20;98.92
14253;BME280;7210;51.502;10.722;2024-02-14T12:39:39;100032.41;;;10.24;99.15
14253;BME280;7210;51.502;10.722;2024-02-14T12:42:07;100020.81;;;10.25;99.44
14253;BME280;7210;51.502;10.722;2024-02-14T12:44:34;100022.81;;;10.30;99.83
14253;BME280;7210;51.502;10.722;2024-02-14T12:47:03;100028.00;;;10.43;99.95
14253;BME280;7210;51.502;10.722;2024-02-14T12:49:30;100054.88;;;10.64;100.00
14253;BME280;7210;51.502;10.722;2024-02-14T12:51:58;100034.06;;;10.74;100.00
14253;BME280;7210;51.502;10.722;2024-02-14T12:54:26;100044.50;;;10.87;99.96
14253;BME280;7210;51.502;10.722;2024-02-14T12:56:53;100037.50;;;10.99;99.91
14253;BME280;7210;51.502;10.722;2024-02-14T12:59:22;100022.72;;;11.10;99.31
14253;BME280;7210;51.502;10.722;2024-02-14T13:01:49;100024.44;;;11.22;99.13
14253;BME280;7210;51.502;10.722;2024-02-14T13:04:16;99986.09;;;11.07;98.74
14253;BME280;7210;51.502;10.722;2024-02-14T13:06:44;99988.16;;;11.05;98.36